Time;durP1;ratioP1;P1;durP2;ratioP2;P2;SDS_P1;SDS_P2;PMS_P1;PMS_P2;Temp;Humidity;BMP_temperature;BMP_pressure;BME280_temperature;BME280_humidity;BME280_pressure;Samples;Min_cycle;Max_cycle;Signal;HPM_P1;HPM_P2
2023/11/07 00:00:10;;;;;;;8.25;2.15;;;7.40;99.90;;;;;;6286000;28;20503;-85
2023/11/07 00:03:12;;;;;;;9.75;2.33;;;7.30;99.90;;;;;;6261603;28;20056;-87
2023/11/07 00:06:14;;;;;;;8.57;2.15;;;7.20;99.90;;;;;;6275888;28;20053;-88
2023/11/07 00:09:16;;;;;;;9.90;2.30;;;7.20;99.90;;;;;;6264533;28;20191;-87
2023/11/07 00:12:18;;;;;;;10.98;2.65;;;7.20;99.90;;;;;;6263844;28;20138;-86
2023/11/07 00:15:20;;;;;;;12.15;2.50;;;7.10;99.90;;;;;;6250227;28;20052;-85
2023/11/07 00:18:21;;;;;;;17.58;2.65;;;7.00;99.90;;;;;;6274055;28;20056;-89
2023/11/07 00:21:23;;;;;;;10.18;2.35;;;6.90;99.90;;;;;;6255217;28;20052;-85
2023/11/07 00:24:28;;;;;;;11.52;2.47;;;6.80;99.90;;;;;;6275018;28;20060;-85
2023/11/07 00:27:30;;;;;;;8.80;2.20;;;6.80;99.90;;;;;;6258592;28;20045;-86
2023/11/07 00:30:32;;;;;;;10.30;2.28;;;6.80;99.90;;;;;;6256558;28;20511;-85
2023/11/07 00:33:34;;;;;;;11.75;2.47;;;6.80;99.90;;;;;;6257554;28;20052;-85
2023/11/07 00:36:36;;;;;;;11.98;2.63;;;6.80;99.90;;;;;;6275403;28;20059;-85
2023/11/07 00:39:37;;;;;;;8.70;2.28;;;6.80;99.90;;;;;;6275157;28;20068;-86
2023/11/07 00:42:39;;;;;;;11.60;2.28;;;6.80;99.90;;;;;;6275861;28;20044;-87
2023/11/07 00:45:41;;;;;;;11.20;2.30;;;6.80;99.90;;;;;;6272439;28;20412;-85
2023/11/07 00:48:43;;;;;;;16.23;2.60;;;6.70;99.90;;;;;;6256305;28;20083;-85
2023/11/07 00:51:45;;;;;;;10.38;2.47;;;6.70;99.90;;;;;;6273609;28;20199;-84
2023/11/07 00:54:46;;;;;;;8.98;2.08;;;6.80;99.90;;;;;;6274103;28;20052;-84
2023/11/07 00:57:48;;;;;;;9.25;2.45;;;6.80;99.90;;;;;;6273020;28;20065;-85
2023/11/07 01:00:49;;;;;;;10.23;2.58;;;6.80;99.90;;;;;;6270389;28;20709;-85
2023/11/07 01:03:51;;;;;;;13.15;2.40;;;6.80;99.90;;;;;;6248634;28;20416;-86
2023/11/07 01:06:53;;;;;;;8.40;2.00;;;6.90;99.90;;;;;;6266862;28;20049;-87
2023/11/07 01:09:55;;;;;;;10.27;2.30;;;6.90;99.90;;;;;;6272988;28;20041;-87
2023/11/07 01:12:56;;;;;;;15.88;2.25;;;6.90;99.90;;;;;;6271269;28;20056;-88
2023/11/07 01:15:58;;;;;;;10.38;2.20;;;6.90;99.90;;;;;;6251893;28;20064;-86
2023/11/07 01:18:59;;;;;;;7.97;2.22;;;6.90;99.90;;;;;;6247800;28;20049;-86
2023/11/07 01:22:01;;;;;;;10.68;2.38;;;6.90;99.90;;;;;;6271760;28;20052;-86
2023/11/07 01:25:04;;;;;;;10.27;2.50;;;6.90;99.90;;;;;;6272096;28;20064;-87
2023/11/07 01:28:06;;;;;;;16.90;2.58;;;6.90;99.90;;;;;;6271927;28;20044;-87
2023/11/07 01:31:08;;;;;;;11.80;2.10;;;6.90;99.90;;;;;;6251801;28;20065;-88
2023/11/07 01:34:09;;;;;;;16.80;2.53;;;7.10;99.90;;;;;;6233579;28;20048;-87
2023/11/07 01:37:11;;;;;;;8.95;2.10;;;7.10;99.90;;;;;;6275455;28;20053;-86
2023/11/07 01:40:13;;;;;;;9.80;2.20;;;7.10;99.90;;;;;;6277050;28;20068;-87
2023/11/07 01:43:15;;;;;;;10.95;2.10;;;7.10;99.90;;;;;;6256461;28;20041;-86
2023/11/07 01:46:16;;;;;;;10.80;2.35;;;7.10;99.90;;;;;;6255641;28;20059;-84
2023/11/07 01:49:18;;;;;;;9.90;2.13;;;7.10;99.90;;;;;;6255505;28;20052;-84
2023/11/07 01:52:20;;;;;;;8.57;2.00;;;7.10;99.90;;;;;;6273076;28;20057;-84
2023/11/07 01:55:21;;;;;;;14.85;2.65;;;7.10;99.90;;;;;;6271154;28;20492;-85
2023/11/07 01:58:23;;;;;;;11.93;2.58;;;7.10;99.90;;;;;;6266982;28;20060;-84
2023/11/07 02:01:25;;;;;;;14.27;2.30;;;7.10;99.90;;;;;;6271742;28;20059;-85
2023/11/07 02:04:26;;;;;;;11.25;2.35;;;7.10;99.90;;;;;;6247056;28;20061;-85
2023/11/07 02:07:28;;;;;;;13.27;2.20;;;7.10;99.90;;;;;;6271308;28;20134;-84
2023/11/07 02:10:30;;;;;;;16.63;2.30;;;7.10;99.90;;;;;;6271921;28;20045;-84
2023/11/07 02:13:31;;;;;;;13.23;2.30;;;7.10;99.90;;;;;;6269578;28;20420;-84
2023/11/07 02:16:33;;;;;;;10.70;2.25;;;7.10;99.90;;;;;;6273401;28;20045;-87
2023/11/07 02:19:34;;;;;;;13.23;2.13;;;7.10;99.90;;;;;;6274528;28;20049;-86
2023/11/07 02:22:36;;;;;;;10.02;2.20;;;7.10;99.90;;;;;;6274681;28;20045;-87
2023/11/07 02:25:41;;;;;;;7.65;2.00;;;7.00;99.90;;;;;;6256806;28;20071;-86
2023/11/07 02:28:42;;;;;;;9.13;1.88;;;7.10;99.90;;;;;;6271826;28;20534;-87
2023/11/07 02:31:44;;;;;;;11.20;2.30;;;7.00;99.90;;;;;;6256563;28;20053;-86
2023/11/07 02:34:46;;;;;;;8.23;1.98;;;7.10;99.90;;;;;;6273709;28;20049;-87
2023/11/07 02:37:48;;;;;;;9.25;2.53;;;7.00;99.90;;;;;;6273645;28;20060;-86
2023/11/07 02:40:50;;;;;;;6.75;1.67;;;7.10;99.90;;;;;;6273860;28;20052;-87
2023/11/07 02:43:52;;;;;;;9.48;2.22;;;7.10;99.90;;;;;;6271830;28;20049;-87
2023/11/07 02:46:54;;;;;;;11.02;2.03;;;7.00;99.90;;;;;;6273267;28;20056;-86
2023/11/07 02:49:55;;;;;;;10.30;2.05;;;7.00;99.90;;;;;;6256035;28;20045;-87
2023/11/07 02:52:58;;;;;;;10.35;2.00;;;7.00;99.90;;;;;;6273870;28;20053;-86
2023/11/07 02:56:01;;;;;;;10.57;2.08;;;7.00;99.90;;;;;;6253856;28;20049;-86
2023/11/07 02:59:03;;;;;;;13.48;2.15;;;7.00;99.90;;;;;;6268321;28;20041;-86
2023/11/07 03:02:04;;;;;;;11.68;2.15;;;7.00;99.90;;;;;;6270204;28;20053;-86
2023/11/07 03:05:06;;;;;;;11.52;2.25;;;7.10;99.90;;;;;;6268546;28;20051;-86
2023/11/07 03:08:08;;;;;;;6.43;1.73;;;7.10;99.90;;;;;;6273491;28;20049;-86
2023/11/07 03:11:09;;;;;;;9.00;2.00;;;7.00;99.90;;;;;;6272221;28;20052;-86
2023/11/07 03:14:11;;;;;;;8.82;1.67;;;7.00;99.90;;;;;;6252548;28;20069;-86
2023/11/07 03:17:13;;;;;;;10.95;1.75;;;7.00;99.90;;;;;;6271669;28;20059;-86
2023/11/07 03:20:16;;;;;;;8.80;1.80;;;6.90;99.90;;;;;;6271863;28;20414;-86
2023/11/07 03:23:18;;;;;;;10.07;1.88;;;6.90;99.90;;;;;;6272033;28;20125;-86
2023/11/07 03:26:20;;;;;;;8.85;1.63;;;7.00;99.90;;;;;;6272228;28;20045;-87
2023/11/07 03:29:21;;;;;;;6.75;1.52;;;7.00;99.90;;;;;;6268849;28;20412;-85
2023/11/07 03:32:23;;;;;;;12.38;2.05;;;7.00;99.90;;;;;;6251486;28;20056;-86
2023/11/07 03:35:27;;;;;;;12.10;1.92;;;6.90;99.90;;;;;;6269671;28;20048;-85
2023/11/07 03:38:28;;;;;;;7.20;1.70;;;6.80;99.90;;;;;;6252641;28;20526;-85
2023/11/07 03:41:30;;;;;;;7.88;1.50;;;6.80;99.90;;;;;;6269953;28;20111;-85
2023/11/07 03:44:34;;;;;;;12.45;1.73;;;6.80;99.90;;;;;;6268611;28;20052;-85
2023/11/07 03:47:36;;;;;;;10.93;1.70;;;6.90;99.90;;;;;;6270126;28;20496;-85
2023/11/07 03:50:37;;;;;;;11.45;2.30;;;6.80;99.90;;;;;;6270124;28;20040;-85
2023/11/07 03:53:39;;;;;;;10.18;1.98;;;6.80;99.90;;;;;;6269908;28;20191;-85
2023/11/07 03:56:41;;;;;;;9.88;2.10;;;6.90;99.90;;;;;;6251185;28;20408;-85
2023/11/07 03:59:42;;;;;;;9.90;1.65;;;6.90;99.90;;;;;;6269360;28;20167;-85
2023/11/07 04:02:44;;;;;;;8.68;1.80;;;6.90;99.90;;;;;;6270243;28;20135;-85
2023/11/07 04:05:46;;;;;;;15.57;2.05;;;6.90;99.90;;;;;;6267660;28;20088;-86
2023/11/07 04:08:48;;;;;;;11.95;2.00;;;7.00;99.90;;;;;;6269523;28;20198;-85
2023/11/07 04:11:50;;;;;;;9.13;1.75;;;6.90;99.90;;;;;;6251976;28;20053;-85
2023/11/07 04:14:54;;;;;;;11.00;1.70;;;6.90;99.90;;;;;;6266982;28;20049;-85
2023/11/07 04:17:56;;;;;;;12.70;1.75;;;6.90;99.90;;;;;;6269563;28;20048;-85
2023/11/07 04:20:59;;;;;;;15.35;1.90;;;6.90;99.90;;;;;;6269807;28;20145;-85
2023/11/07 04:24:00;;;;;;;8.55;1.70;;;6.80;99.90;;;;;;6269279;28;20147;-86
2023/11/07 04:27:02;;;;;;;9.55;1.60;;;6.70;99.90;;;;;;6269488;28;20056;-86
2023/11/07 04:30:07;;;;;;;8.32;1.42;;;6.60;99.90;;;;;;6267549;28;20179;-85
2023/11/07 04:33:09;;;;;;;9.90;1.65;;;6.50;99.90;;;;;;6251818;28;20563;-85
2023/11/07 04:36:12;;;;;;;11.27;1.63;;;6.50;99.90;;;;;;6251467;28;20416;-85
2023/11/07 04:39:13;;;;;;;12.90;2.00;;;6.40;99.90;;;;;;6268988;28;20468;-85
2023/11/07 04:42:15;;;;;;;8.90;1.85;;;6.30;99.90;;;;;;6250990;28;20057;-85
2023/11/07 04:45:17;;;;;;;8.35;1.77;;;6.40;99.90;;;;;;6246892;28;20049;-86
2023/11/07 04:48:22;;;;;;;8.43;1.80;;;6.30;99.90;;;;;;6244081;28;20076;-87
2023/11/07 04:51:24;;;;;;;10.23;2.25;;;6.30;99.90;;;;;;6260367;28;20198;-86
2023/11/07 04:54:26;;;;;;;9.40;1.58;;;6.30;99.90;;;;;;6271029;28;20049;-86
2023/11/07 04:57:27;;;;;;;12.57;2.15;;;6.20;99.90;;;;;;6271090;28;20060;-87
2023/11/07 05:00:29;;;;;;;9.63;2.03;;;6.30;99.90;;;;;;6247383;28;20079;-88
2023/11/07 05:03:31;;;;;;;12.68;2.00;;;6.20;99.90;;;;;;6270869;28;20493;-88
2023/11/07 05:06:41;;;;;;;6.18;1.35;;;6.20;99.90;;;;;;6255610;28;20056;-89
2023/11/07 05:09:43;;;;;;;10.95;1.92;;;6.30;99.90;;;;;;6277832;28;20523;-88
2023/11/07 05:12:45;;;;;;;7.15;1.55;;;6.30;99.90;;;;;;6277735;28;20049;-88
2023/11/07 05:15:46;;;;;;;9.20;2.00;;;6.30;99.90;;;;;;6275928;28;20064;-89
2023/11/07 05:18:48;;;;;;;9.68;1.77;;;6.30;99.90;;;;;;6235633;28;20041;-87
2023/11/07 05:21:50;;;;;;;7.15;1.52;;;6.30;99.90;;;;;;6276219;28;20049;-88
2023/11/07 05:24:51;;;;;;;7.45;1.58;;;6.20;99.90;;;;;;6276606;28;20044;-88
2023/11/07 05:27:53;;;;;;;12.13;2.28;;;6.20;99.90;;;;;;6276846;28;20496;-88
2023/11/07 05:30:54;;;;;;;8.20;1.90;;;6.10;99.90;;;;;;6255511;28;20057;-87
2023/11/07 05:33:56;;;;;;;10.10;1.85;;;6.10;99.90;;;;;;6252177;28;20049;-88
2023/11/07 05:36:58;;;;;;;10.30;2.10;;;6.10;99.90;;;;;;6275989;28;20051;-89
2023/11/07 05:40:00;;;;;;;8.43;1.70;;;6.20;99.90;;;;;;6259093;28;20057;-88
2023/11/07 05:43:02;;;;;;;10.77;2.20;;;6.10;99.90;;;;;;6276378;28;20114;-88
2023/11/07 05:46:04;;;;;;;13.68;2.63;;;6.10;99.90;;;;;;6276504;28;20076;-88
2023/11/07 05:49:07;;;;;;;9.57;2.10;;;6.10;99.90;;;;;;6252596;28;20049;-89
2023/11/07 05:52:10;;;;;;;8.77;1.80;;;6.20;99.90;;;;;;6275943;28;20053;-88
2023/11/07 05:55:14;;;;;;;10.00;1.92;;;6.10;99.90;;;;;;6275587;28;20053;-86
2023/11/07 05:58:16;;;;;;;6.07;1.77;;;6.10;99.90;;;;;;6273211;28;20550;-88
2023/11/07 06:01:18;;;;;;;8.85;2.00;;;6.20;99.90;;;;;;6258632;28;20558;-86
2023/11/07 06:04:20;;;;;;;11.18;2.50;;;6.20;99.90;;;;;;6256427;28;20052;-85
2023/11/07 06:07:23;;;;;;;10.93;2.05;;;6.20;99.90;;;;;;6272497;28;20102;-87
2023/11/07 06:10:24;;;;;;;7.82;1.80;;;6.20;99.90;;;;;;6258282;28;20045;-87
2023/11/07 06:13:26;;;;;;;8.63;1.88;;;6.40;99.90;;;;;;6254826;28;20064;-85
2023/11/07 06:16:28;;;;;;;7.55;1.80;;;6.30;99.90;;;;;;6273342;28;20049;-85
2023/11/07 06:19:30;;;;;;;9.90;1.83;;;6.40;99.90;;;;;;6246842;28;20409;-85
2023/11/07 06:22:32;;;;;;;10.43;2.08;;;6.30;99.90;;;;;;6271842;28;20052;-86
2023/11/07 06:25:34;;;;;;;6.68;1.73;;;6.20;99.90;;;;;;6254839;28;20064;-86
2023/11/07 06:28:36;;;;;;;8.40;2.15;;;6.20;99.90;;;;;;6270029;28;20499;-85
2023/11/07 06:31:38;;;;;;;13.73;2.42;;;6.20;99.90;;;;;;6255212;28;20056;-85
2023/11/07 06:34:40;;;;;;;12.75;2.20;;;6.20;99.90;;;;;;6255433;28;20053;-86
2023/11/07 06:37:42;;;;;;;12.70;2.53;;;6.10;99.90;;;;;;6255674;28;20053;-85
2023/11/07 06:40:44;;;;;;;13.55;2.50;;;6.20;99.90;;;;;;6272002;28;20519;-85
2023/11/07 06:43:46;;;;;;;8.88;1.85;;;6.20;99.90;;;;;;6250604;28;20053;-85
2023/11/07 06:46:51;;;;;;;12.25;2.13;;;6.20;99.90;;;;;;6270450;28;20045;-85
2023/11/07 06:49:53;;;;;;;8.20;1.75;;;6.10;99.90;;;;;;6272778;28;20129;-86
2023/11/07 06:52:54;;;;;;;9.68;2.13;;;6.00;99.90;;;;;;6271348;28;20048;-86
2023/11/07 06:55:57;;;;;;;9.10;2.10;;;5.90;99.90;;;;;;6271791;28;20527;-86
2023/11/07 06:58:59;;;;;;;13.10;2.42;;;5.90;99.90;;;;;;6250846;28;20076;-87
2023/11/07 07:02:01;;;;;;;10.57;2.45;;;5.90;99.90;;;;;;6273411;28;20052;-87
2023/11/07 07:05:03;;;;;;;8.43;2.00;;;5.90;99.90;;;;;;6271447;28;20056;-87
2023/11/07 07:08:08;;;;;;;9.43;2.25;;;6.00;99.90;;;;;;6274309;28;20057;-84
2023/11/07 07:11:09;;;;;;;6.82;2.00;;;5.90;99.90;;;;;;6254860;28;20519;-85
2023/11/07 07:14:11;;;;;;;12.30;2.22;;;5.90;99.90;;;;;;6268290;28;20049;-88
2023/11/07 07:17:14;;;;;;;11.50;2.22;;;6.00;99.90;;;;;;6273252;28;20056;-86
2023/11/07 07:20:16;;;;;;;10.50;2.28;;;6.00;99.90;;;;;;6273097;28;20056;-86
2023/11/07 07:23:18;;;;;;;8.98;2.47;;;6.00;99.90;;;;;;6272643;28;20049;-86
2023/11/07 07:26:22;;;;;;;8.75;2.08;;;6.00;99.90;;;;;;6254687;28;20076;-87
2023/11/07 07:29:26;;;;;;;13.05;2.40;;;5.90;99.90;;;;;;6270529;28;20496;-85
2023/11/07 07:32:28;;;;;;;9.57;2.45;;;6.00;99.90;;;;;;6273633;28;20045;-88
2023/11/07 07:35:32;;;;;;;9.40;2.05;;;6.00;99.90;;;;;;6275387;28;20048;-90
2023/11/07 07:38:38;;;;;;;11.85;2.47;;;6.00;99.90;;;;;;6258474;28;20049;-90
2023/11/07 07:41:40;;;;;;;8.57;2.03;;;6.00;99.90;;;;;;6277978;28;20049;-88
2023/11/07 07:44:42;;;;;;;13.77;2.50;;;6.10;99.90;;;;;;6272092;28;20485;-83
2023/11/07 07:47:45;;;;;;;9.73;2.22;;;6.20;99.90;;;;;;6277003;28;20045;-84
2023/11/07 07:50:47;;;;;;;10.35;2.40;;;6.20;99.90;;;;;;6257057;28;20132;-87
2023/11/07 07:53:53;;;;;;;8.75;1.88;;;6.30;99.90;;;;;;6271943;28;20139;-84
2023/11/07 07:56:55;;;;;;;9.93;2.20;;;6.40;99.90;;;;;;6257855;28;20056;-84
2023/11/07 07:59:58;;;;;;;8.10;1.90;;;6.40;99.90;;;;;;6249829;28;20057;-78
2023/11/07 08:03:06;;;;;;;8.45;2.13;;;6.50;99.90;;;;;;6269300;28;20127;-91
2023/11/07 08:06:15;;;;;;;9.60;2.20;;;6.50;99.90;;;;;;6251081;28;20488;-85
2023/11/07 08:09:22;;;;;;;9.15;2.20;;;6.60;99.90;;;;;;6226606;28;20057;-87
2023/11/07 08:12:24;;;;;;;10.65;2.58;;;6.60;99.90;;;;;;6258958;28;20056;-79
2023/11/07 08:15:26;;;;;;;10.85;1.98;;;6.70;99.90;;;;;;6238739;28;20485;-81
2023/11/07 08:18:28;;;;;;;9.88;2.20;;;6.80;99.90;;;;;;6268836;28;20137;-81
2023/11/07 08:21:30;;;;;;;7.97;2.28;;;6.90;99.90;;;;;;6274385;28;20504;-90
2023/11/07 08:24:31;;;;;;;6.47;1.77;;;7.00;99.90;;;;;;6275439;28;20061;-91
2023/11/07 08:27:33;;;;;;;7.28;1.60;;;7.10;99.90;;;;;;6256542;28;20496;-85
2023/11/07 08:30:38;;;;;;;9.63;2.00;;;7.10;99.90;;;;;;6254586;28;20140;-89
2023/11/07 08:33:56;;;;;;;10.07;2.17;;;7.20;99.90;;;;;;6234050;28;20100;-87
2023/11/07 08:36:57;;;;;;;9.23;2.38;;;7.30;99.90;;;;;;6269654;28;20057;-88
2023/11/07 08:40:12;;;;;;;9.05;1.98;;;7.60;99.90;;;;;;6245866;28;20061;-88
2023/11/07 08:43:14;;;;;;;9.60;1.70;;;7.70;99.90;;;;;;6267964;28;20049;-85
2023/11/07 08:46:16;;;;;;;16.50;2.20;;;7.90;99.90;;;;;;6257504;28;20045;-84
2023/11/07 08:49:19;;;;;;;4.10;1.20;;;8.10;99.90;;;;;;6258021;28;20082;-85
2023/11/07 08:52:21;;;;;;;7.38;1.38;;;8.80;98.30;;;;;;6257596;28;20056;-89
2023/11/07 08:55:25;;;;;;;8.27;1.42;;;9.30;97.20;;;;;;6258287;28;20087;-82
2023/11/07 08:58:28;;;;;;;7.32;1.05;;;9.80;95.80;;;;;;6251708;28;20055;-88
2023/11/07 09:01:30;;;;;;;8.30;1.30;;;10.70;93.00;;;;;;6270145;28;20052;-78
2023/11/07 09:04:32;;;;;;;7.88;1.13;;;11.30;92.50;;;;;;6272010;28;20136;-79
2023/11/07 09:07:33;;;;;;;7.68;1.23;;;11.90;83.80;;;;;;6271809;28;20067;-81
2023/11/07 09:10:35;;;;;;;6.13;1.33;;;12.60;57.90;;;;;;6273330;28;20412;-81
2023/11/07 09:13:37;;;;;;;8.82;1.27;;;13.00;70.70;;;;;;6268827;28;20056;-82
2023/11/07 09:16:38;;;;;;;3.65;1.00;;;13.40;57.80;;;;;;6259459;28;20052;-88
2023/11/07 09:19:41;;;;;;;3.83;1.08;;;13.80;33.60;;;;;;6278603;28;20514;-83
2023/11/07 09:22:42;;;;;;;5.90;1.20;;;14.20;19.50;;;;;;6255543;28;20057;-80
2023/11/07 09:25:45;;;;;;;3.92;1.27;;;14.40;15.20;;;;;;6272084;28;20053;-82
2023/11/07 09:28:47;;;;;;;7.30;1.42;;;14.80;16.90;;;;;;6267361;28;20500;-84
2023/11/07 09:31:51;;;;;;;7.20;1.42;;;14.80;1.00;;;;;;6271498;28;20523;-81
2023/11/07 09:34:55;;;;;;;5.10;1.10;;;15.00;1.00;;;;;;6274579;28;20068;-90
2023/11/07 09:37:57;;;;;;;4.07;1.10;;;15.40;1.00;;;;;;6271778;28;20056;-84
2023/11/07 09:40:59;;;;;;;5.65;1.52;;;15.50;1.00;;;;;;6271923;28;20056;-86
2023/11/07 09:44:01;;;;;;;5.57;1.00;;;15.50;1.00;;;;;;6253661;28;20428;-82
2023/11/07 09:47:04;;;;;;;5.88;1.45;;;15.70;1.00;;;;;;6257534;28;20068;-88
2023/11/07 09:50:07;;;;;;;9.63;1.40;;;16.00;1.00;;;;;;6260932;28;20068;-93
2023/11/07 09:53:09;;;;;;;5.45;1.42;;;15.80;1.00;;;;;;6261755;28;20179;-80
2023/11/07 09:56:13;;;;;;;4.43;0.98;;;15.70;1.00;;;;;;6274274;28;20049;-89
2023/11/07 09:59:15;;;;;;;5.25;1.40;;;15.70;1.00;;;;;;6259961;28;20435;-82
2023/11/07 10:02:16;;;;;;;6.45;1.08;;;16.10;1.00;;;;;;6274573;28;20044;-83
2023/11/07 10:05:18;;;;;;;4.97;1.10;;;16.20;1.00;;;;;;6273889;28;20053;-88
2023/11/07 10:08:20;;;;;;;8.23;1.42;;;16.60;1.00;;;;;;6273304;28;20049;-82
2023/11/07 10:11:22;;;;;;;7.85;1.40;;;17.00;1.00;;;;;;6277724;28;20045;-82
2023/11/07 10:14:23;;;;;;;4.75;1.45;;;17.10;1.00;;;;;;6277703;28;20064;-82
2023/11/07 10:17:25;;;;;;;3.70;1.00;;;17.00;1.00;;;;;;6283367;28;20049;-85
2023/11/07 10:20:28;;;;;;;3.72;1.10;;;16.90;1.00;;;;;;6274993;28;20048;-81
2023/11/07 10:23:29;;;;;;;7.00;1.55;;;17.20;1.00;;;;;;6272242;28;20060;-85
2023/11/07 10:26:31;;;;;;;5.85;1.15;;;16.90;1.00;;;;;;6273072;28;20522;-83
2023/11/07 10:29:34;;;;;;;4.80;1.10;;;17.10;1.00;;;;;;6267545;28;20068;-77
2023/11/07 10:32:43;;;;;;;5.22;1.13;;;16.60;1.00;;;;;;6270149;28;20049;-81
2023/11/07 10:35:45;;;;;;;5.60;1.05;;;17.00;1.00;;;;;;6251852;28;20053;-83
2023/11/07 10:38:47;;;;;;;6.47;1.80;;;17.20;1.00;;;;;;6270543;28;20520;-81
2023/11/07 10:41:49;;;;;;;4.72;1.08;;;17.30;1.00;;;;;;6245380;28;20056;-81
2023/11/07 10:44:50;;;;;;;6.00;1.40;;;17.50;1.00;;;;;;6257887;28;20575;-80
2023/11/07 10:47:52;;;;;;;5.20;1.15;;;17.70;1.00;;;;;;6244740;28;20112;-80
2023/11/07 10:50:54;;;;;;;5.72;1.20;;;17.90;1.00;;;;;;6268685;28;20052;-81
2023/11/07 10:53:56;;;;;;;5.50;1.33;;;18.00;1.00;;;;;;6270264;28;20072;-84
2023/11/07 10:56:58;;;;;;;5.57;1.20;;;17.80;1.00;;;;;;6270898;28;20140;-84
2023/11/07 10:59:59;;;;;;;4.68;1.27;;;17.60;1.00;;;;;;6271103;28;20053;-93
2023/11/07 11:03:04;;;;;;;4.05;1.00;;;17.20;1.00;;;;;;6255908;28;20514;-87
2023/11/07 11:06:06;;;;;;;3.05;1.00;;;17.20;1.00;;;;;;6254847;28;20092;-89
2023/11/07 11:09:10;;;;;;;7.40;1.38;;;17.30;1.00;;;;;;6273515;28;20557;-88
2023/11/07 11:12:12;;;;;;;6.45;1.27;;;17.50;1.00;;;;;;6273162;28;20056;-88
2023/11/07 11:15:14;;;;;;;5.72;1.30;;;18.10;1.00;;;;;;6254675;28;20079;-87
2023/11/07 11:18:16;;;;;;;4.82;1.83;;;18.70;1.00;;;;;;6255830;28;20063;-87
2023/11/07 11:21:23;;;;;;;3.83;1.33;;;18.60;1.00;;;;;;6254447;28;20653;-85
2023/11/07 11:24:25;;;;;;;4.78;1.67;;;18.20;1.00;;;;;;6247316;28;20073;-85
2023/11/07 11:27:28;;;;;;;2.70;1.10;;;18.20;1.00;;;;;;6260434;28;20132;-85
2023/11/07 11:30:31;;;;;;;6.68;1.83;;;17.70;1.00;;;;;;6267337;28;20122;-87
2023/11/07 11:33:34;;;;;;;4.65;1.40;;;17.50;1.00;;;;;;6252973;28;20053;-85
2023/11/07 11:36:40;;;;;;;5.63;1.20;;;17.20;1.00;;;;;;6252610;28;20132;-87
2023/11/07 11:39:42;;;;;;;6.32;1.48;;;17.20;1.00;;;;;;6254162;28;20056;-87
2023/11/07 11:42:43;;;;;;;4.38;1.33;;;17.20;1.00;;;;;;6254203;28;20131;-86
2023/11/07 11:45:45;;;;;;;6.22;1.40;;;17.60;1.00;;;;;;6250394;28;20056;-85
2023/11/07 11:48:51;;;;;;;5.32;1.40;;;17.50;1.00;;;;;;6227481;28;20373;-87
2023/11/07 11:51:54;;;;;;;6.78;1.55;;;17.60;1.00;;;;;;6267956;28;20511;-85
2023/11/07 11:54:56;;;;;;;6.57;1.52;;;17.70;1.00;;;;;;6252591;28;20060;-87
2023/11/07 11:57:57;;;;;;;6.07;1.80;;;17.40;1.00;;;;;;6251103;28;20068;-87
2023/11/07 12:01:00;;;;;;;7.30;1.88;;;17.80;1.00;;;;;;6268080;28;20702;-85
2023/11/07 12:04:02;;;;;;;4.32;1.38;;;17.50;1.00;;;;;;6252106;28;20049;-86
2023/11/07 12:07:04;;;;;;;5.75;1.67;;;17.30;1.00;;;;;;6253195;28;20476;-86
2023/11/07 12:10:05;;;;;;;6.20;1.30;;;17.00;1.00;;;;;;6252735;28;20049;-88
2023/11/07 12:13:09;;;;;;;2.33;1.00;;;16.20;1.00;;;;;;6269718;28;20049;-86
2023/11/07 12:16:13;;;;;;;4.32;1.00;;;16.20;1.00;;;;;;6253682;28;20098;-86
2023/11/07 12:19:14;;;;;;;4.55;0.95;;;16.50;1.00;;;;;;6233807;28;20061;-87
2023/11/07 12:22:16;;;;;;;3.47;1.20;;;16.10;1.00;;;;;;6274656;28;20057;-85
2023/11/07 12:25:19;;;;;;;4.30;1.50;;;15.60;1.00;;;;;;6275456;28;20088;-86
2023/11/07 12:28:22;;;;;;;4.32;1.20;;;16.00;1.00;;;;;;6255628;28;20044;-87
2023/11/07 12:31:23;;;;;;;4.63;1.20;;;16.50;1.00;;;;;;6258350;28;20049;-86
2023/11/07 12:34:26;;;;;;;5.72;1.55;;;16.40;1.00;;;;;;6234493;28;20517;-87
2023/11/07 12:37:28;;;;;;;6.13;1.77;;;16.10;1.00;;;;;;6275100;28;20130;-84
2023/11/07 12:40:29;;;;;;;5.55;1.50;;;15.80;1.00;;;;;;6259031;28;20639;-86
2023/11/07 12:43:31;;;;;;;7.68;1.60;;;15.40;1.00;;;;;;6256137;28;20181;-86
2023/11/07 12:46:33;;;;;;;3.58;1.02;;;15.50;1.00;;;;;;6257888;28;20049;-88
2023/11/07 12:49:34;;;;;;;3.35;1.00;;;15.70;1.00;;;;;;6257462;28;20053;-88
2023/11/07 12:52:39;;;;;;;6.93;1.27;;;15.20;1.00;;;;;;6258513;28;20049;-88
2023/11/07 12:55:40;;;;;;;5.32;1.30;;;14.80;1.00;;;;;;6257607;28;20065;-89
2023/11/07 12:58:42;;;;;;;6.00;1.48;;;14.40;1.00;;;;;;6256884;28;20416;-88
2023/11/07 13:01:44;;;;;;;4.78;1.30;;;14.50;1.00;;;;;;6256702;28;20060;-87
2023/11/07 13:04:46;;;;;;;4.78;1.00;;;14.40;1.00;;;;;;6258532;28;20053;-87
2023/11/07 13:07:48;;;;;;;7.45;1.48;;;14.10;1.00;;;;;;6258400;28;20076;-87
2023/11/07 13:10:50;;;;;;;6.30;1.48;;;14.00;1.00;;;;;;6266534;28;20057;-90
2023/11/07 13:13:51;;;;;;;5.82;1.50;;;13.60;1.00;;;;;;6274062;28;20075;-88
2023/11/07 13:16:53;;;;;;;7.20;1.58;;;13.40;1.00;;;;;;6292400;28;20076;-88
2023/11/07 13:19:55;;;;;;;4.10;1.40;;;13.50;1.00;;;;;;6290769;28;20045;-88
2023/11/07 13:22:56;;;;;;;6.70;1.67;;;13.70;1.00;;;;;;6268726;28;20053;-88
2023/11/07 13:25:58;;;;;;;4.70;1.40;;;14.20;1.00;;;;;;6276296;28;20067;-90
2023/11/07 13:29:00;;;;;;;6.03;1.52;;;14.60;1.00;;;;;;6263539;28;20048;-90
2023/11/07 13:32:01;;;;;;;5.93;1.30;;;14.60;1.00;;;;;;6273430;28;20048;-84
2023/11/07 13:38:30;;;;;;;4.45;1.42;;;14.60;1.00;;;;;;6296639;28;20049;-88
2023/11/07 13:41:32;;;;;;;8.45;1.50;;;14.70;1.00;;;;;;6272922;28;20140;-78
2023/11/07 13:44:34;;;;;;;4.70;1.30;;;14.30;1.00;;;;;;6270481;28;20793;-85
2023/11/07 13:47:38;;;;;;;6.63;1.40;;;14.30;1.00;;;;;;6282969;28;20160;-86
2023/11/07 13:50:39;;;;;;;4.22;1.30;;;14.20;1.00;;;;;;6259332;28;20552;-87
2023/11/07 13:53:41;;;;;;;5.07;1.48;;;14.10;1.00;;;;;;6272696;28;20049;-82
2023/11/07 13:56:43;;;;;;;6.55;1.30;;;13.80;1.00;;;;;;6268774;28;20436;-80
2023/11/07 13:59:45;;;;;;;5.07;1.20;;;13.70;1.00;;;;;;6279174;28;20053;-87
2023/11/07 14:02:46;;;;;;;8.18;1.40;;;13.60;1.00;;;;;;6256207;28;20064;-79
2023/11/07 14:05:48;;;;;;;6.10;1.20;;;13.60;1.00;;;;;;6272184;28;20085;-82
2023/11/07 14:08:50;;;;;;;7.80;2.28;;;13.60;1.00;;;;;;6276061;28;20053;-84
2023/11/07 14:11:52;;;;;;;6.05;1.45;;;13.50;1.00;;;;;;6282592;28;20056;-86
2023/11/07 14:14:54;;;;;;;5.25;1.30;;;13.90;1.00;;;;;;6276855;28;20053;-83
2023/11/07 14:17:56;;;;;;;7.85;1.50;;;14.00;1.00;;;;;;6269011;28;20087;-77
2023/11/07 14:20:58;;;;;;;6.03;1.13;;;13.90;1.00;;;;;;6271349;28;20134;-91
2023/11/07 14:24:00;;;;;;;2.63;1.08;;;13.80;1.00;;;;;;6261256;28;20518;-83
2023/11/07 14:27:04;;;;;;;6.97;1.50;;;13.60;1.00;;;;;;6281003;28;20057;-86
2023/11/07 14:30:08;;;;;;;6.25;1.52;;;13.40;1.00;;;;;;6259176;28;20053;-79
2023/11/07 14:33:29;;;;;;;8.13;1.65;;;13.30;1.00;;;;;;6259021;28;20139;-82
2023/11/07 14:36:34;;;;;;;6.00;1.60;;;13.10;1.00;;;;;;6253497;28;20052;-86
2023/11/07 14:39:35;;;;;;;5.30;1.63;;;13.10;1.00;;;;;;6255211;28;20049;-89
2023/11/07 14:42:37;;;;;;;6.53;1.60;;;13.10;1.00;;;;;;6232625;28;20064;-84
2023/11/07 14:45:39;;;;;;;5.78;1.67;;;13.10;1.00;;;;;;6267798;28;20127;-82
2023/11/07 14:48:41;;;;;;;7.53;1.73;;;13.10;1.00;;;;;;6242901;28;20057;-79
2023/11/07 14:51:42;;;;;;;6.65;1.58;;;13.10;1.00;;;;;;6274336;28;20056;-89
2023/11/07 14:54:44;;;;;;;7.50;1.70;;;13.10;1.00;;;;;;6280249;28;20504;-90
2023/11/07 14:57:46;;;;;;;8.23;1.90;;;13.00;1.00;;;;;;6262270;28;20053;-82
2023/11/07 15:00:49;;;;;;;8.10;1.90;;;12.80;1.00;;;;;;6253029;28;20096;-81
2023/11/07 15:03:51;;;;;;;4.30;1.60;;;12.70;1.00;;;;;;6245273;28;20053;-80
2023/11/07 15:06:53;;;;;;;5.97;1.40;;;12.50;1.00;;;;;;6247118;28;20512;-85
2023/11/07 15:09:54;;;;;;;8.63;1.90;;;12.50;1.00;;;;;;6274955;28;20134;-86
2023/11/07 15:12:57;;;;;;;9.07;1.90;;;12.40;1.00;;;;;;6275699;28;20485;-88
2023/11/07 15:15:59;;;;;;;8.00;1.80;;;12.30;1.00;;;;;;6279343;28;20053;-89
2023/11/07 15:19:03;;;;;;;7.75;2.40;;;12.30;1.00;;;;;;6258989;28;20159;-84
2023/11/07 15:22:05;;;;;;;7.82;1.98;;;12.30;1.00;;;;;;6276240;28;20048;-82
2023/11/07 15:25:11;;;;;;;10.07;2.33;;;12.20;1.00;;;;;;6254392;28;20394;-84
2023/11/07 15:28:15;;;;;;;7.88;1.92;;;12.10;2.50;;;;;;6233341;28;20071;-78
2023/11/07 15:31:16;;;;;;;5.72;1.83;;;12.00;7.90;;;;;;6270160;28;20357;-85
2023/11/07 15:37:40;;;;;;;7.72;2.15;;;11.80;18.60;;;;;;6316730;22;20053;-92
2023/11/07 15:40:43;;;;;;;6.57;2.42;;;11.70;29.90;;;;;;6233834;28;20187;-86
2023/11/07 15:43:47;;;;;;;8.13;2.30;;;11.60;36.30;;;;;;6210491;28;20204;-90
2023/11/07 15:46:49;;;;;;;7.28;2.10;;;11.40;49.10;;;;;;6230230;28;20049;-89
2023/11/07 15:49:54;;;;;;;9.88;2.65;;;11.30;57.70;;;;;;6234231;28;20419;-87
2023/11/07 15:53:20;;;;;;;7.77;2.30;;;11.20;65.60;;;;;;6226602;28;20049;-87
2023/11/07 15:56:22;;;;;;;7.95;2.38;;;11.20;64.70;;;;;;6244988;28;20140;-83
2023/11/07 15:59:23;;;;;;;9.13;2.40;;;11.20;66.00;;;;;;6234797;28;20077;-83
2023/11/07 16:02:27;;;;;;;11.88;2.70;;;11.10;68.50;;;;;;6224430;28;20418;-86